sensor_id;sensor_type;location;lat;lon;timestamp;P1;durP1;ratioP1;P2;durP2;ratioP2
5418;SDS011;2732;52.092;11.556;2023-04-24T00:00:41;4.20;;;3.70;;
5418;SDS011;2732;52.092;11.556;2023-04-24T00:05:44;4.67;;;3.90;;
5418;SDS011;2732;52.092;11.556;2023-04-24T00:10:45;3.40;;;3.00;;
5418;SDS011;2732;52.092;11.556;2023-04-24T00:15:46;3.30;;;3.10;;
5418;SDS011;2732;52.092;11.556;2023-04-24T00:20:47;3.43;;;1.80;;
5418;SDS011;2732;52.092;11.556;2023-04-24T00:25:48;1.50;;;1.50;;
5418;SDS011;2732;52.092;11.556;2023-04-24T00:30:48;2.13;;;1.30;;
5418;SDS011;2732;52.092;11.556;2023-04-24T00:35:49;1.53;;;1.43;;
5418;SDS011;2732;52.092;11.556;2023-04-24T00:40:50;1.23;;;1.13;;
5418;SDS011;2732;52.092;11.556;2023-04-24T00:45:51;1.83;;;1.00;;
5418;SDS011;2732;52.092;11.556;2023-04-24T00:50:51;2.50;;;1.20;;
5418;SDS011;2732;52.092;11.556;2023-04-24T00:55:52;3.17;;;1.20;;
5418;SDS011;2732;52.092;11.556;2023-04-24T01:00:53;4.03;;;1.10;;
5418;SDS011;2732;52.092;11.556;2023-04-24T01:05:55;1.27;;;1.17;;
5418;SDS011;2732;52.092;11.556;2023-04-24T01:10:56;1.67;;;1.03;;
5418;SDS011;2732;52.092;11.556;2023-04-24T01:15:58;7.63;;;1.27;;
5418;SDS011;2732;52.092;11.556;2023-04-24T01:20:59;3.13;;;1.10;;
5418;SDS011;2732;52.092;11.556;2023-04-24T01:26:04;3.57;;;0.77;;
5418;SDS011;2732;52.092;11.556;2023-04-24T01:31:06;0.70;;;0.70;;
5418;SDS011;2732;52.092;11.556;2023-04-24T01:36:07;1.23;;;1.13;;
5418;SDS011;2732;52.092;11.556;2023-04-24T01:41:12;1.73;;;1.30;;
5418;SDS011;2732;52.092;11.556;2023-04-24T01:46:12;1.63;;;1.40;;
5418;SDS011;2732;52.092;11.556;2023-04-24T01:51:13;1.40;;;1.30;;
5418;SDS011;2732;52.092;11.556;2023-04-24T01:56:14;1.30;;;1.20;;
5418;SDS011;2732;52.092;11.556;2023-04-24T02:01:17;0.90;;;0.90;;
5418;SDS011;2732;52.092;11.556;2023-04-24T02:06:20;5.60;;;1.37;;
5418;SDS011;2732;52.092;11.556;2023-04-24T02:11:20;1.13;;;1.03;;
5418;SDS011;2732;52.092;11.556;2023-04-24T02:16:21;1.40;;;1.30;;
5418;SDS011;2732;52.092;11.556;2023-04-24T02:21:21;1.10;;;1.00;;
5418;SDS011;2732;52.092;11.556;2023-04-24T02:26:22;1.53;;;1.43;;
5418;SDS011;2732;52.092;11.556;2023-04-24T02:31:23;1.83;;;1.40;;
5418;SDS011;2732;52.092;11.556;2023-04-24T02:36:23;1.47;;;1.07;;
5418;SDS011;2732;52.092;11.556;2023-04-24T02:41:25;1.83;;;1.10;;
5418;SDS011;2732;52.092;11.556;2023-04-24T02:46:31;1.40;;;1.37;;
5418;SDS011;2732;52.092;11.556;2023-04-24T02:51:31;2.23;;;1.57;;
5418;SDS011;2732;52.092;11.556;2023-04-24T02:56:32;1.40;;;1.30;;
5418;SDS011;2732;52.092;11.556;2023-04-24T03:01:32;8.27;;;1.50;;
5418;SDS011;2732;52.092;11.556;2023-04-24T03:06:33;5.23;;;1.13;;
5418;SDS011;2732;52.092;11.556;2023-04-24T03:11:35;1.40;;;1.30;;
5418;SDS011;2732;52.092;11.556;2023-04-24T03:16:35;1.47;;;1.23;;
5418;SDS011;2732;52.092;11.556;2023-04-24T03:21:36;2.00;;;1.20;;
5418;SDS011;2732;52.092;11.556;2023-04-24T03:26:40;1.57;;;1.40;;
5418;SDS011;2732;52.092;11.556;2023-04-24T03:31:41;1.03;;;0.90;;
5418;SDS011;2732;52.092;11.556;2023-04-24T03:36:41;1.90;;;1.20;;
5418;SDS011;2732;52.092;11.556;2023-04-24T03:41:42;4.10;;;1.10;;
5418;SDS011;2732;52.092;11.556;2023-04-24T03:46:42;2.20;;;1.37;;
5418;SDS011;2732;52.092;11.556;2023-04-24T03:51:43;1.37;;;1.37;;
5418;SDS011;2732;52.092;11.556;2023-04-24T03:56:45;1.57;;;0.90;;
5418;SDS011;2732;52.092;11.556;2023-04-24T04:01:46;1.23;;;1.13;;
5418;SDS011;2732;52.092;11.556;2023-04-24T04:06:46;1.80;;;1.33;;
5418;SDS011;2732;52.092;11.556;2023-04-24T04:11:47;1.53;;;1.10;;
5418;SDS011;2732;52.092;11.556;2023-04-24T04:16:48;1.20;;;1.20;;
5418;SDS011;2732;52.092;11.556;2023-04-24T04:21:49;1.70;;;1.20;;
5418;SDS011;2732;52.092;11.556;2023-04-24T04:26:55;1.43;;;1.10;;
5418;SDS011;2732;52.092;11.556;2023-04-24T04:31:58;1.07;;;0.80;;
5418;SDS011;2732;52.092;11.556;2023-04-24T04:36:59;1.13;;;0.90;;
5418;SDS011;2732;52.092;11.556;2023-04-24T04:42:00;2.20;;;1.50;;
5418;SDS011;2732;52.092;11.556;2023-04-24T04:47:02;3.93;;;1.17;;
5418;SDS011;2732;52.092;11.556;2023-04-24T04:52:05;1.20;;;1.00;;
5418;SDS011;2732;52.092;11.556;2023-04-24T04:57:06;1.40;;;1.30;;
5418;SDS011;2732;52.092;11.556;2023-04-24T05:02:07;1.17;;;0.87;;
5418;SDS011;2732;52.092;11.556;2023-04-24T05:07:08;1.23;;;0.90;;
5418;SDS011;2732;52.092;11.556;2023-04-24T05:12:09;1.57;;;1.47;;
5418;SDS011;2732;52.092;11.556;2023-04-24T05:17:09;0.83;;;0.83;;
5418;SDS011;2732;52.092;11.556;2023-04-24T05:22:10;1.43;;;0.60;;
5418;SDS011;2732;52.092;11.556;2023-04-24T05:27:11;1.23;;;0.80;;
5418;SDS011;2732;52.092;11.556;2023-04-24T05:32:12;0.80;;;0.80;;
5418;SDS011;2732;52.092;11.556;2023-04-24T05:37:12;1.33;;;1.03;;
5418;SDS011;2732;52.092;11.556;2023-04-24T05:42:13;1.13;;;0.70;;
5418;SDS011;2732;52.092;11.556;2023-04-24T05:47:13;1.53;;;1.43;;
5418;SDS011;2732;52.092;11.556;2023-04-24T05:52:15;6.37;;;1.77;;
5418;SDS011;2732;52.092;11.556;2023-04-24T05:57:15;1.73;;;0.90;;
5418;SDS011;2732;52.092;11.556;2023-04-24T06:02:16;2.20;;;1.10;;
5418;SDS011;2732;52.092;11.556;2023-04-24T06:07:17;0.93;;;0.90;;
5418;SDS011;2732;52.092;11.556;2023-04-24T06:12:17;1.13;;;1.10;;
5418;SDS011;2732;52.092;11.556;2023-04-24T06:17:18;1.53;;;1.03;;
5418;SDS011;2732;52.092;11.556;2023-04-24T06:22:19;2.23;;;1.00;;
5418;SDS011;2732;52.092;11.556;2023-04-24T06:27:19;0.80;;;0.80;;
5418;SDS011;2732;52.092;11.556;2023-04-24T06:32:21;2.27;;;0.93;;
5418;SDS011;2732;52.092;11.556;2023-04-24T06:37:23;2.93;;;1.13;;
5418;SDS011;2732;52.092;11.556;2023-04-24T06:42:28;1.47;;;1.10;;
5418;SDS011;2732;52.092;11.556;2023-04-24T06:47:29;1.30;;;1.30;;
5418;SDS011;2732;52.092;11.556;2023-04-24T06:52:29;2.23;;;1.20;;
5418;SDS011;2732;52.092;11.556;2023-04-24T06:57:33;1.53;;;1.43;;
5418;SDS011;2732;52.092;11.556;2023-04-24T07:02:33;1.20;;;1.10;;
5418;SDS011;2732;52.092;11.556;2023-04-24T07:07:34;1.20;;;0.90;;
5418;SDS011;2732;52.092;11.556;2023-04-24T07:12:37;4.00;;;1.47;;
5418;SDS011;2732;52.092;11.556;2023-04-24T07:17:38;1.33;;;0.80;;
5418;SDS011;2732;52.092;11.556;2023-04-24T07:22:42;0.70;;;0.70;;
5418;SDS011;2732;52.092;11.556;2023-04-24T07:27:43;2.20;;;0.63;;
5418;SDS011;2732;52.092;11.556;2023-04-24T07:32:43;0.90;;;0.90;;
5418;SDS011;2732;52.092;11.556;2023-04-24T07:37:45;1.60;;;0.80;;
5418;SDS011;2732;52.092;11.556;2023-04-24T07:42:45;1.60;;;0.70;;
5418;SDS011;2732;52.092;11.556;2023-04-24T07:47:48;1.00;;;1.00;;
5418;SDS011;2732;52.092;11.556;2023-04-24T07:52:50;0.80;;;0.80;;
5418;SDS011;2732;52.092;11.556;2023-04-24T07:57:51;2.30;;;0.90;;
5418;SDS011;2732;52.092;11.556;2023-04-24T08:02:51;2.10;;;0.70;;
5418;SDS011;2732;52.092;11.556;2023-04-24T08:07:52;1.80;;;0.60;;
5418;SDS011;2732;52.092;11.556;2023-04-24T08:12:53;3.17;;;0.60;;
5418;SDS011;2732;52.092;11.556;2023-04-24T08:17:55;1.00;;;0.53;;
5418;SDS011;2732;52.092;11.556;2023-04-24T08:22:57;0.83;;;0.70;;
5418;SDS011;2732;52.092;11.556;2023-04-24T08:27:57;2.77;;;0.60;;
5418;SDS011;2732;52.092;11.556;2023-04-24T08:32:58;0.80;;;0.80;;
5418;SDS011;2732;52.092;11.556;2023-04-24T08:37:58;1.07;;;0.90;;
5418;SDS011;2732;52.092;11.556;2023-04-24T08:42:59;0.50;;;0.50;;
5418;SDS011;2732;52.092;11.556;2023-04-24T08:48:00;2.40;;;0.57;;
5418;SDS011;2732;52.092;11.556;2023-04-24T08:53:02;4.33;;;0.80;;
5418;SDS011;2732;52.092;11.556;2023-04-24T08:58:03;1.13;;;0.60;;
5418;SDS011;2732;52.092;11.556;2023-04-24T09:03:05;1.90;;;0.60;;
5418;SDS011;2732;52.092;11.556;2023-04-24T09:08:06;0.60;;;0.50;;
5418;SDS011;2732;52.092;11.556;2023-04-24T09:13:08;1.03;;;0.70;;
5418;SDS011;2732;52.092;11.556;2023-04-24T09:18:11;1.00;;;0.50;;
5418;SDS011;2732;52.092;11.556;2023-04-24T09:23:17;0.60;;;0.60;;
5418;SDS011;2732;52.092;11.556;2023-04-24T09:28:18;2.03;;;0.70;;
5418;SDS011;2732;52.092;11.556;2023-04-24T09:33:18;1.33;;;0.70;;
5418;SDS011;2732;52.092;11.556;2023-04-24T09:38:19;3.23;;;0.70;;
5418;SDS011;2732;52.092;11.556;2023-04-24T09:43:38;2.20;;;0.80;;
5418;SDS011;2732;52.092;11.556;2023-04-24T09:48:38;3.50;;;1.07;;
5418;SDS011;2732;52.092;11.556;2023-04-24T09:53:39;2.20;;;1.40;;
5418;SDS011;2732;52.092;11.556;2023-04-24T09:58:45;0.70;;;0.70;;
5418;SDS011;2732;52.092;11.556;2023-04-24T10:03:46;1.73;;;0.70;;
5418;SDS011;2732;52.092;11.556;2023-04-24T10:08:47;1.40;;;0.87;;
5418;SDS011;2732;52.092;11.556;2023-04-24T10:13:51;1.10;;;1.00;;
5418;SDS011;2732;52.092;11.556;2023-04-24T10:18:52;1.67;;;1.57;;
5418;SDS011;2732;52.092;11.556;2023-04-24T10:23:53;1.10;;;1.10;;
5418;SDS011;2732;52.092;11.556;2023-04-24T10:28:54;0.83;;;0.83;;
5418;SDS011;2732;52.092;11.556;2023-04-24T10:33:57;1.10;;;1.10;;
5418;SDS011;2732;52.092;11.556;2023-04-24T10:39:01;2.10;;;0.80;;
5418;SDS011;2732;52.092;11.556;2023-04-24T10:44:12;1.00;;;1.00;;
5418;SDS011;2732;52.092;11.556;2023-04-24T10:49:14;0.80;;;0.70;;
5418;SDS011;2732;52.092;11.556;2023-04-24T10:54:27;0.83;;;0.83;;
5418;SDS011;2732;52.092;11.556;2023-04-24T10:59:35;1.00;;;0.70;;
5418;SDS011;2732;52.092;11.556;2023-04-24T11:04:37;1.57;;;0.80;;
5418;SDS011;2732;52.092;11.556;2023-04-24T11:09:38;0.70;;;0.70;;
5418;SDS011;2732;52.092;11.556;2023-04-24T11:20:02;0.87;;;0.80;;
5418;SDS011;2732;52.092;11.556;2023-04-24T11:25:08;1.00;;;1.00;;
5418;SDS011;2732;52.092;11.556;2023-04-24T11:30:11;1.43;;;1.17;;
5418;SDS011;2732;52.092;11.556;2023-04-24T11:35:20;2.40;;;0.90;;
5418;SDS011;2732;52.092;11.556;2023-04-24T11:40:27;1.03;;;0.80;;
5418;SDS011;2732;52.092;11.556;2023-04-24T11:45:29;2.40;;;1.17;;
5418;SDS011;2732;52.092;11.556;2023-04-24T11:50:30;1.33;;;1.03;;
5418;SDS011;2732;52.092;11.556;2023-04-24T11:55:31;1.90;;;1.00;;
5418;SDS011;2732;52.092;11.556;2023-04-24T12:00:32;0.80;;;0.80;;
5418;SDS011;2732;52.092;11.556;2023-04-24T12:05:34;1.20;;;1.07;;
5418;SDS011;2732;52.092;11.556;2023-04-24T12:10:35;7.40;;;1.00;;
5418;SDS011;2732;52.092;11.556;2023-04-24T12:15:36;3.60;;;0.83;;
5418;SDS011;2732;52.092;11.556;2023-04-24T12:20:40;0.90;;;0.90;;
5418;SDS011;2732;52.092;11.556;2023-04-24T12:25:41;2.23;;;0.90;;
5418;SDS011;2732;52.092;11.556;2023-04-24T12:30:48;0.70;;;0.70;;
5418;SDS011;2732;52.092;11.556;2023-04-24T12:35:53;1.13;;;0.53;;
5418;SDS011;2732;52.092;11.556;2023-04-24T12:41:02;1.93;;;1.00;;
5418;SDS011;2732;52.092;11.556;2023-04-24T12:46:05;1.27;;;1.17;;
5418;SDS011;2732;52.092;11.556;2023-04-24T12:51:05;2.33;;;0.80;;
5418;SDS011;2732;52.092;11.556;2023-04-24T12:56:07;2.50;;;0.90;;
5418;SDS011;2732;52.092;11.556;2023-04-24T13:01:08;0.97;;;0.70;;
5418;SDS011;2732;52.092;11.556;2023-04-24T13:06:08;1.30;;;1.20;;
5418;SDS011;2732;52.092;11.556;2023-04-24T13:11:09;1.20;;;0.80;;
5418;SDS011;2732;52.092;11.556;2023-04-24T13:16:10;1.03;;;0.90;;
5418;SDS011;2732;52.092;11.556;2023-04-24T13:21:10;2.70;;;0.70;;
5418;SDS011;2732;52.092;11.556;2023-04-24T13:26:11;1.00;;;1.00;;
5418;SDS011;2732;52.092;11.556;2023-04-24T13:31:11;0.63;;;0.63;;
5418;SDS011;2732;52.092;11.556;2023-04-24T13:36:13;0.50;;;0.50;;
5418;SDS011;2732;52.092;11.556;2023-04-24T13:41:14;0.77;;;0.53;;
5418;SDS011;2732;52.092;11.556;2023-04-24T13:46:14;0.73;;;0.73;;
5418;SDS011;2732;52.092;11.556;2023-04-24T13:51:15;0.87;;;0.87;;
5418;SDS011;2732;52.092;11.556;2023-04-24T13:56:16;2.40;;;1.10;;
5418;SDS011;2732;52.092;11.556;2023-04-24T14:01:17;1.40;;;0.87;;
5418;SDS011;2732;52.092;11.556;2023-04-24T14:06:18;0.60;;;0.60;;
5418;SDS011;2732;52.092;11.556;2023-04-24T14:11:19;1.93;;;0.57;;
5418;SDS011;2732;52.092;11.556;2023-04-24T14:16:20;1.33;;;0.60;;
5418;SDS011;2732;52.092;11.556;2023-04-24T14:21:20;1.93;;;0.87;;
5418;SDS011;2732;52.092;11.556;2023-04-24T14:26:21;0.67;;;0.67;;
5418;SDS011;2732;52.092;11.556;2023-04-24T14:31:22;0.90;;;0.90;;
5418;SDS011;2732;52.092;11.556;2023-04-24T14:36:22;1.10;;;0.60;;
5418;SDS011;2732;52.092;11.556;2023-04-24T14:41:23;3.73;;;0.53;;
5418;SDS011;2732;52.092;11.556;2023-04-24T14:46:23;0.70;;;0.50;;
5418;SDS011;2732;52.092;11.556;2023-04-24T14:51:24;1.57;;;0.40;;
5418;SDS011;2732;52.092;11.556;2023-04-24T14:56:25;0.77;;;0.73;;
5418;SDS011;2732;52.092;11.556;2023-04-24T15:01:26;1.23;;;0.50;;
5418;SDS011;2732;52.092;11.556;2023-04-24T15:06:26;2.90;;;0.60;;
5418;SDS011;2732;52.092;11.556;2023-04-24T15:11:27;3.37;;;0.43;;
5418;SDS011;2732;52.092;11.556;2023-04-24T15:16:28;1.20;;;0.40;;
5418;SDS011;2732;52.092;11.556;2023-04-24T15:21:29;0.37;;;0.30;;
5418;SDS011;2732;52.092;11.556;2023-04-24T15:26:30;1.63;;;0.40;;
5418;SDS011;2732;52.092;11.556;2023-04-24T15:31:31;0.50;;;0.40;;
5418;SDS011;2732;52.092;11.556;2023-04-24T15:36:31;2.17;;;0.40;;
5418;SDS011;2732;52.092;11.556;2023-04-24T15:41:32;0.40;;;0.30;;
5418;SDS011;2732;52.092;11.556;2023-04-24T15:46:34;1.17;;;0.40;;
5418;SDS011;2732;52.092;11.556;2023-04-24T15:51:35;3.97;;;0.40;;
5418;SDS011;2732;52.092;11.556;2023-04-24T15:56:36;5.30;;;0.40;;
5418;SDS011;2732;52.092;11.556;2023-04-24T16:01:37;0.47;;;0.43;;
5418;SDS011;2732;52.092;11.556;2023-04-24T16:06:38;1.50;;;0.40;;
5418;SDS011;2732;52.092;11.556;2023-04-24T16:11:39;0.77;;;0.30;;
5418;SDS011;2732;52.092;11.556;2023-04-24T16:16:40;0.40;;;0.30;;
5418;SDS011;2732;52.092;11.556;2023-04-24T16:21:40;2.20;;;0.60;;
5418;SDS011;2732;52.092;11.556;2023-04-24T16:26:41;7.80;;;0.60;;
5418;SDS011;2732;52.092;11.556;2023-04-24T16:31:42;0.70;;;0.30;;
5418;SDS011;2732;52.092;11.556;2023-04-24T16:36:43;0.57;;;0.33;;
5418;SDS011;2732;52.092;11.556;2023-04-24T16:41:43;0.40;;;0.40;;
5418;SDS011;2732;52.092;11.556;2023-04-24T16:46:44;1.03;;;0.40;;
5418;SDS011;2732;52.092;11.556;2023-04-24T16:51:45;0.40;;;0.40;;
5418;SDS011;2732;52.092;11.556;2023-04-24T16:56:45;0.80;;;0.50;;
5418;SDS011;2732;52.092;11.556;2023-04-24T17:01:46;0.50;;;0.43;;
5418;SDS011;2732;52.092;11.556;2023-04-24T17:06:47;0.47;;;0.47;;
5418;SDS011;2732;52.092;11.556;2023-04-24T17:11:48;0.63;;;0.50;;
5418;SDS011;2732;52.092;11.556;2023-04-24T17:16:49;1.03;;;0.80;;
5418;SDS011;2732;52.092;11.556;2023-04-24T17:21:50;0.83;;;0.67;;
5418;SDS011;2732;52.092;11.556;2023-04-24T17:26:50;2.20;;;1.00;;
5418;SDS011;2732;52.092;11.556;2023-04-24T17:31:51;1.27;;;1.20;;
5418;SDS011;2732;52.092;11.556;2023-04-24T17:36:51;1.17;;;0.93;;
5418;SDS011;2732;52.092;11.556;2023-04-24T17:41:52;5.47;;;1.80;;
5418;SDS011;2732;52.092;11.556;2023-04-24T17:46:53;1.70;;;1.60;;
5418;SDS011;2732;52.092;11.556;2023-04-24T17:51:53;1.70;;;1.60;;
5418;SDS011;2732;52.092;11.556;2023-04-24T17:56:54;1.93;;;1.83;;
5418;SDS011;2732;52.092;11.556;2023-04-24T18:01:54;1.80;;;1.70;;
5418;SDS011;2732;52.092;11.556;2023-04-24T18:06:56;1.80;;;1.70;;
5418;SDS011;2732;52.092;11.556;2023-04-24T18:11:56;3.10;;;1.80;;
5418;SDS011;2732;52.092;11.556;2023-04-24T18:16:57;1.90;;;1.80;;
5418;SDS011;2732;52.092;11.556;2023-04-24T18:21:58;1.63;;;1.53;;
5418;SDS011;2732;52.092;11.556;2023-04-24T18:26:58;2.07;;;1.90;;
5418;SDS011;2732;52.092;11.556;2023-04-24T18:32:00;2.30;;;1.80;;
5418;SDS011;2732;52.092;11.556;2023-04-24T18:37:01;2.00;;;1.90;;
5418;SDS011;2732;52.092;11.556;2023-04-24T18:42:01;2.13;;;1.90;;
5418;SDS011;2732;52.092;11.556;2023-04-24T18:47:02;4.27;;;2.30;;
5418;SDS011;2732;52.092;11.556;2023-04-24T18:52:03;2.53;;;2.33;;
5418;SDS011;2732;52.092;11.556;2023-04-24T18:57:04;2.50;;;2.40;;
5418;SDS011;2732;52.092;11.556;2023-04-24T19:02:04;2.50;;;2.30;;
5418;SDS011;2732;52.092;11.556;2023-04-24T19:07:10;3.13;;;2.93;;
5418;SDS011;2732;52.092;11.556;2023-04-24T19:12:10;3.20;;;3.00;;
5418;SDS011;2732;52.092;11.556;2023-04-24T19:17:11;4.00;;;3.53;;
5418;SDS011;2732;52.092;11.556;2023-04-24T19:22:12;3.87;;;3.43;;
5418;SDS011;2732;52.092;11.556;2023-04-24T19:27:13;4.10;;;3.80;;
5418;SDS011;2732;52.092;11.556;2023-04-24T19:32:14;3.70;;;3.50;;
5418;SDS011;2732;52.092;11.556;2023-04-24T19:37:15;4.03;;;3.10;;
5418;SDS011;2732;52.092;11.556;2023-04-24T19:42:16;4.50;;;3.07;;
5418;SDS011;2732;52.092;11.556;2023-04-24T19:47:16;3.97;;;3.10;;
5418;SDS011;2732;52.092;11.556;2023-04-24T19:52:17;5.10;;;2.80;;
5418;SDS011;2732;52.092;11.556;2023-04-24T19:57:18;6.20;;;2.90;;
5418;SDS011;2732;52.092;11.556;2023-04-24T20:02:19;3.97;;;2.97;;
5418;SDS011;2732;52.092;11.556;2023-04-24T20:07:20;3.80;;;2.97;;
5418;SDS011;2732;52.092;11.556;2023-04-24T20:12:21;4.50;;;3.07;;
5418;SDS011;2732;52.092;11.556;2023-04-24T20:17:21;3.30;;;3.10;;
5418;SDS011;2732;52.092;11.556;2023-04-24T20:22:22;5.00;;;3.40;;
5418;SDS011;2732;52.092;11.556;2023-04-24T20:27:22;5.27;;;3.47;;
5418;SDS011;2732;52.092;11.556;2023-04-24T20:32:23;3.57;;;3.17;;
5418;SDS011;2732;52.092;11.556;2023-04-24T20:37:24;3.23;;;2.93;;
5418;SDS011;2732;52.092;11.556;2023-04-24T20:42:25;3.77;;;3.47;;
5418;SDS011;2732;52.092;11.556;2023-04-24T20:47:30;4.80;;;3.60;;
5418;SDS011;2732;52.092;11.556;2023-04-24T20:52:30;3.20;;;3.07;;
5418;SDS011;2732;52.092;11.556;2023-04-24T20:57:31;3.37;;;3.17;;
5418;SDS011;2732;52.092;11.556;2023-04-24T21:02:32;3.37;;;3.10;;
5418;SDS011;2732;52.092;11.556;2023-04-24T21:07:33;3.27;;;3.07;;
5418;SDS011;2732;52.092;11.556;2023-04-24T21:12:34;2.80;;;2.60;;
5418;SDS011;2732;52.092;11.556;2023-04-24T21:17:34;6.80;;;3.40;;
5418;SDS011;2732;52.092;11.556;2023-04-24T21:22:35;3.33;;;2.90;;
5418;SDS011;2732;52.092;11.556;2023-04-24T21:27:36;1.83;;;1.73;;
5418;SDS011;2732;52.092;11.556;2023-04-24T21:32:36;3.97;;;2.60;;
5418;SDS011;2732;52.092;11.556;2023-04-24T21:37:39;2.57;;;2.37;;
5418;SDS011;2732;52.092;11.556;2023-04-24T21:42:40;3.67;;;2.00;;
5418;SDS011;2732;52.092;11.556;2023-04-24T21:47:41;3.33;;;2.43;;
5418;SDS011;2732;52.092;11.556;2023-04-24T21:52:42;4.20;;;3.13;;
5418;SDS011;2732;52.092;11.556;2023-04-24T21:57:42;5.10;;;2.67;;
5418;SDS011;2732;52.092;11.556;2023-04-24T22:02:43;6.63;;;2.67;;
5418;SDS011;2732;52.092;11.556;2023-04-24T22:07:44;9.47;;;2.70;;
5418;SDS011;2732;52.092;11.556;2023-04-24T22:12:45;4.00;;;2.37;;
5418;SDS011;2732;52.092;11.556;2023-04-24T22:17:53;5.97;;;2.80;;
5418;SDS011;2732;52.092;11.556;2023-04-24T22:22:53;2.97;;;2.50;;
5418;SDS011;2732;52.092;11.556;2023-04-24T22:27:54;2.53;;;2.30;;
5418;SDS011;2732;52.092;11.556;2023-04-24T22:32:55;8.83;;;2.43;;
5418;SDS011;2732;52.092;11.556;2023-04-24T22:37:55;3.20;;;2.70;;
5418;SDS011;2732;52.092;11.556;2023-04-24T22:42:57;2.93;;;2.60;;
5418;SDS011;2732;52.092;11.556;2023-04-24T22:47:57;3.27;;;2.97;;
5418;SDS011;2732;52.092;11.556;2023-04-24T22:52:58;2.77;;;2.53;;
5418;SDS011;2732;52.092;11.556;2023-04-24T22:57:59;5.33;;;2.87;;
5418;SDS011;2732;52.092;11.556;2023-04-24T23:03:00;4.63;;;2.93;;
5418;SDS011;2732;52.092;11.556;2023-04-24T23:08:00;4.80;;;3.10;;
5418;SDS011;2732;52.092;11.556;2023-04-24T23:13:01;6.20;;;3.00;;
5418;SDS011;2732;52.092;11.556;2023-04-24T23:18:01;2.83;;;2.40;;
5418;SDS011;2732;52.092;11.556;2023-04-24T23:23:02;9.43;;;3.10;;
5418;SDS011;2732;52.092;11.556;2023-04-24T23:28:03;3.03;;;2.83;;
5418;SDS011;2732;52.092;11.556;2023-04-24T23:33:04;3.70;;;3.17;;
5418;SDS011;2732;52.092;11.556;2023-04-24T23:38:05;3.50;;;2.60;;
5418;SDS011;2732;52.092;11.556;2023-04-24T23:43:05;2.83;;;2.63;;
5418;SDS011;2732;52.092;11.556;2023-04-24T23:48:11;7.93;;;3.60;;
5418;SDS011;2732;52.092;11.556;2023-04-24T23:53:12;3.33;;;2.97;;
5418;SDS011;2732;52.092;11.556;2023-04-24T23:58:12;9.17;;;3.50;;
